Time;durP1;ratioP1;P1;durP2;ratioP2;P2;SDS_P1;SDS_P2;PMS_P1;PMS_P2;Temp;Humidity;BMP_temperature;BMP_pressure;BME280_temperature;BME280_humidity;BME280_pressure;Samples;Min_cycle;Max_cycle;Signal;HPM_P1;HPM_P2
2020/12/24 00:00:51;;;;;;;17.63;12.43;;;;;;;-0.07;100.00;100035.83;1736507;81;21176;-76
2020/12/24 00:03:21;;;;;;;25.10;16.20;;;;;;;-0.06;100.00;100036.30;1766631;81;21149;-77
2020/12/24 00:05:48;;;;;;;23.50;14.47;;;;;;;-0.06;100.00;100034.17;1761116;81;21135;-77
2020/12/24 00:08:16;;;;;;;17.40;10.13;;;;;;;-0.06;100.00;100029.09;1764211;81;21133;-77
2020/12/24 00:10:44;;;;;;;23.53;15.57;;;;;;;-0.07;100.00;100024.38;1759005;80;21149;-78
2020/12/24 00:13:12;;;;;;;27.43;16.23;;;;;;;-0.08;100.00;100023.94;1750651;81;21564;-77
2020/12/24 00:15:40;;;;;;;22.53;13.60;;;;;;;-0.06;100.00;100026.55;1750175;81;21151;-77
2020/12/24 00:18:10;;;;;;;19.03;11.90;;;;;;;-0.04;100.00;100024.89;1755723;81;21143;-77
2020/12/24 00:20:38;;;;;;;24.23;15.07;;;;;;;-0.07;100.00;100014.63;1751966;81;21463;-78
2020/12/24 00:23:06;;;;;;;18.23;10.77;;;;;;;-0.08;100.00;100021.81;1757507;81;21109;-78
2020/12/24 00:25:33;;;;;;;24.93;16.03;;;;;;;-0.08;100.00;100025.21;1748474;81;21128;-77
2020/12/24 00:28:01;;;;;;;18.50;12.77;;;;;;;-0.07;100.00;100020.98;1760057;81;21134;-76
2020/12/24 00:30:29;;;;;;;23.07;14.83;;;;;;;-0.05;100.00;100014.27;1773105;80;21115;-76
2020/12/24 00:32:56;;;;;;;25.43;15.37;;;;;;;-0.06;100.00;100014.69;1752387;82;21107;-78
2020/12/24 00:35:24;;;;;;;22.50;12.10;;;;;;;-0.08;100.00;100009.10;1728971;82;21143;-77
2020/12/24 00:37:51;;;;;;;21.43;11.67;;;;;;;-0.11;100.00;100005.20;1746568;82;21190;-77
2020/12/24 00:40:19;;;;;;;13.93;9.63;;;;;;;-0.14;100.00;99998.34;1740273;82;21107;-76
2020/12/24 00:42:46;;;;;;;20.33;13.13;;;;;;;-0.11;100.00;99994.61;1732287;82;21146;-76
2020/12/24 00:45:14;;;;;;;21.83;13.83;;;;;;;-0.10;100.00;99995.09;1729805;82;21298;-76
2020/12/24 00:47:41;;;;;;;21.37;11.83;;;;;;;-0.11;100.00;100004.78;1727552;82;21570;-76
2020/12/24 00:50:09;;;;;;;15.17;10.43;;;;;;;-0.13;100.00;100009.37;1727345;82;21147;-76
2020/12/24 00:52:37;;;;;;;20.20;12.77;;;;;;;-0.11;100.00;100008.59;1732020;82;21190;-76
2020/12/24 00:55:04;;;;;;;21.03;12.50;;;;;;;-0.10;100.00;100017.09;1737769;82;21187;-76
2020/12/24 00:57:32;;;;;;;18.13;11.07;;;;;;;-0.10;100.00;100011.62;1724950;83;21202;-76
2020/12/24 01:00:00;;;;;;;17.67;12.07;;;;;;;-0.06;100.00;100018.50;1745365;82;21154;-76
2020/12/24 01:02:28;;;;;;;21.80;12.87;;;;;;;-0.02;100.00;100024.53;1737914;81;21096;-76
2020/12/24 01:04:55;;;;;;;22.73;14.13;;;;;;;-0.04;100.00;100023.20;1727149;82;21122;-76
2020/12/24 01:07:23;;;;;;;21.40;12.07;;;;;;;-0.05;100.00;100021.48;1741795;82;21546;-76
2020/12/24 01:09:52;;;;;;;21.00;12.30;;;;;;;-0.04;100.00;100018.53;1738008;81;21608;-76
2020/12/24 01:12:19;;;;;;;20.40;13.13;;;;;;;-0.04;100.00;100008.36;1727276;82;21159;-75
2020/12/24 01:14:46;;;;;;;21.73;13.40;;;;;;;-0.03;100.00;100019.00;1726619;83;21167;-76
2020/12/24 01:17:14;;;;;;;18.50;11.57;;;;;;;-0.01;100.00;100016.92;1722184;82;21593;-76
2020/12/24 01:19:41;;;;;;;18.77;11.70;;;;;;;0.03;100.00;100025.91;1727375;82;21178;-76
2020/12/24 01:22:09;;;;;;;30.30;17.53;;;;;;;0.06;100.00;100028.13;1727442;82;21199;-76
2020/12/24 01:24:36;;;;;;;19.73;12.60;;;;;;;0.08;100.00;100027.77;1754451;82;21092;-76
2020/12/24 01:27:04;;;;;;;18.37;11.57;;;;;;;0.10;100.00;100032.88;1757333;82;21163;-76
2020/12/24 01:29:32;;;;;;;26.03;14.57;;;;;;;0.09;100.00;100028.62;1735356;81;21202;-77
2020/12/24 01:31:59;;;;;;;19.20;11.47;;;;;;;0.10;100.00;100029.95;1741786;81;21574;-76
2020/12/24 01:34:27;;;;;;;22.80;12.97;;;;;;;0.11;100.00;100021.50;1755542;81;21147;-75
2020/12/24 01:37:00;;;;;;;18.00;11.13;;;;;;;0.16;100.00;100019.06;1709266;81;21158;-76
2020/12/24 01:39:29;;;;;;;20.43;13.10;;;;;;;0.16;100.00;100021.61;1765661;81;21182;-77
2020/12/24 01:41:57;;;;;;;24.13;13.30;;;;;;;0.17;100.00;100022.08;1725268;81;21127;-77
2020/12/24 01:44:25;;;;;;;20.87;12.30;;;;;;;0.15;100.00;100011.84;1719549;83;21134;-76
2020/12/24 01:46:52;;;;;;;28.83;16.57;;;;;;;0.12;100.00;100010.49;1763980;81;21526;-78
2020/12/24 01:49:20;;;;;;;21.20;13.27;;;;;;;0.15;100.00;100014.81;1734345;81;21218;-77
2020/12/24 01:51:54;;;;;;;24.80;14.67;;;;;;;0.15;100.00;100018.62;1756224;80;21240;-77
2020/12/24 01:54:25;;;;;;;28.17;16.07;;;;;;;0.14;100.00;100010.55;1745189;80;21132;-77
2020/12/24 01:56:53;;;;;;;24.77;13.77;;;;;;;0.13;100.00;100008.80;1756565;80;21189;-76
2020/12/24 01:59:24;;;;;;;23.32;13.93;;;;;;;0.14;100.00;100019.45;1756764;80;21146;-76
2020/12/24 02:01:53;;;;;;;24.97;14.03;;;;;;;0.15;100.00;100017.35;1754718;80;21127;-76
2020/12/24 02:04:20;;;;;;;23.70;14.67;;;;;;;0.17;100.00;100015.72;1758052;80;21176;-77
2020/12/24 02:06:50;;;;;;;27.77;16.60;;;;;;;0.16;100.00;100013.98;1757640;80;21138;-76
2020/12/24 02:09:18;;;;;;;23.00;12.43;;;;;;;0.15;100.00;100014.39;1747808;80;21150;-77
2020/12/24 02:11:45;;;;;;;24.70;14.07;;;;;;;0.16;100.00;100013.59;1745710;80;21527;-77
2020/12/24 02:14:13;;;;;;;21.33;12.33;;;;;;;0.20;100.00;100013.26;1756615;80;21253;-77
2020/12/24 02:16:40;;;;;;;20.03;12.10;;;;;;;0.19;100.00;100008.97;1731496;80;21196;-77
2020/12/24 02:19:08;;;;;;;17.07;11.80;;;;;;;0.14;100.00;100008.00;1742906;80;21275;-77
2020/12/24 02:21:36;;;;;;;21.30;12.53;;;;;;;0.13;100.00;100003.72;1732549;80;21273;-77
2020/12/24 02:24:03;;;;;;;24.20;15.13;;;;;;;0.09;100.00;100009.13;1756153;80;21143;-77
2020/12/24 02:26:31;;;;;;;21.37;13.03;;;;;;;0.08;100.00;100007.84;1756198;80;21154;-76
2020/12/24 02:28:59;;;;;;;15.10;9.53;;;;;;;0.08;100.00;100004.02;1755985;80;21178;-77
2020/12/24 02:31:28;;;;;;;16.23;9.70;;;;;;;0.07;100.00;100002.31;1736830;82;21513;-77
2020/12/24 02:33:56;;;;;;;18.53;11.67;;;;;;;0.07;100.00;99998.50;1715995;82;21161;-77
2020/12/24 02:36:23;;;;;;;19.80;12.60;;;;;;;0.06;100.00;99989.12;1707590;82;21178;-77
2020/12/24 02:38:51;;;;;;;24.37;14.67;;;;;;;0.03;100.00;99996.66;1728265;82;21594;-76
2020/12/24 02:41:19;;;;;;;21.37;13.00;;;;;;;0.03;100.00;99994.98;1735528;81;21163;-77
2020/12/24 02:43:48;;;;;;;18.93;12.23;;;;;;;0.02;100.00;99998.77;1730285;82;21147;-77
2020/12/24 02:46:16;;;;;;;20.07;12.43;;;;;;;0.01;100.00;100000.45;1752489;82;21139;-76
2020/12/24 02:48:44;;;;;;;22.70;11.87;;;;;;;0.02;100.00;100007.67;1743108;82;21160;-75
2020/12/24 02:51:13;;;;;;;24.70;14.73;;;;;;;0.01;100.00;100003.41;1730866;81;21139;-75
2020/12/24 02:53:41;;;;;;;18.93;11.33;;;;;;;-0.01;100.00;100004.21;1728305;82;21148;-75
2020/12/24 02:56:09;;;;;;;23.77;12.80;;;;;;;-0.02;100.00;100008.86;1731442;81;21176;-75
2020/12/24 02:58:38;;;;;;;20.57;11.60;;;;;;;-0.03;100.00;100002.47;1728333;82;21221;-76
2020/12/24 03:01:05;;;;;;;21.70;12.30;;;;;;;-0.04;100.00;100002.85;1711185;82;21125;-75
2020/12/24 03:03:34;;;;;;;22.20;12.77;;;;;;;-0.05;100.00;100003.69;1741580;82;21619;-75
2020/12/24 03:06:01;;;;;;;22.50;13.20;;;;;;;-0.06;100.00;100012.56;1757711;81;21168;-76
2020/12/24 03:08:30;;;;;;;21.13;12.73;;;;;;;-0.06;100.00;100004.93;1718701;83;21144;-76
2020/12/24 03:10:58;;;;;;;20.60;12.10;;;;;;;-0.06;100.00;100007.06;1667006;84;21149;-75
2020/12/24 03:13:25;;;;;;;19.80;11.27;;;;;;;-0.05;100.00;100008.77;1727933;81;21180;-76
2020/12/24 03:15:53;;;;;;;19.90;11.67;;;;;;;-0.04;100.00;100004.55;1728131;82;21544;-76
2020/12/24 03:18:21;;;;;;;16.10;10.03;;;;;;;-0.03;100.00;100001.20;1728088;82;21149;-77
2020/12/24 03:20:49;;;;;;;20.57;11.77;;;;;;;-0.01;100.00;99999.54;1728158;82;21598;-77
2020/12/24 03:23:16;;;;;;;25.20;15.53;;;;;;;0.01;100.00;99994.09;1728424;82;21128;-77
2020/12/24 03:25:43;;;;;;;19.67;10.43;;;;;;;0.05;100.00;99988.68;1728368;81;21569;-78
2020/12/24 03:28:11;;;;;;;17.37;12.07;;;;;;;0.09;100.00;99986.24;1728621;82;21136;-77
2020/12/24 03:30:39;;;;;;;17.47;11.47;;;;;;;0.12;100.00;99988.88;1734188;82;21642;-77
2020/12/24 03:33:06;;;;;;;22.83;12.90;;;;;;;0.11;100.00;99981.22;1729900;81;21186;-78
2020/12/24 03:35:34;;;;;;;20.13;9.73;;;;;;;0.09;100.00;99977.76;1750971;81;21187;-78
2020/12/24 03:38:02;;;;;;;24.23;12.57;;;;;;;0.06;100.00;99977.67;1750400;81;21131;-78
2020/12/24 03:40:29;;;;;;;25.63;13.80;;;;;;;0.03;100.00;99980.99;1766038;81;21112;-78
2020/12/24 03:42:56;;;;;;;23.50;14.47;;;;;;;0.03;100.00;99977.17;1711472;81;21159;-78
2020/12/24 03:45:24;;;;;;;22.60;14.20;;;;;;;0.04;100.00;99971.70;1703368;83;21585;-78
2020/12/24 03:47:51;;;;;;;28.00;16.60;;;;;;;0.02;100.00;99974.61;1733654;81;21158;-77
2020/12/24 03:50:21;;;;;;;19.00;11.73;;;;;;;0.03;100.00;99971.23;1699181;83;21166;-77
2020/12/24 03:52:48;;;;;;;18.00;10.63;;;;;;;0.06;100.00;99971.32;1729479;81;21153;-77
2020/12/24 03:55:16;;;;;;;23.47;14.63;;;;;;;0.01;100.00;99966.12;1730841;81;21143;-77
2020/12/24 03:57:44;;;;;;;22.37;14.00;;;;;;;0.01;100.00;99959.77;1747223;81;21192;-78
2020/12/24 04:00:12;;;;;;;21.73;11.53;;;;;;;0.03;100.00;99958.52;1748238;81;21179;-78
2020/12/24 04:02:39;;;;;;;19.00;11.33;;;;;;;0.03;100.00;99955.97;1748320;81;21551;-77
2020/12/24 04:05:07;;;;;;;18.53;11.17;;;;;;;-0.01;100.00;99953.35;1748767;81;21179;-77
2020/12/24 04:07:34;;;;;;;15.20;10.07;;;;;;;-0.01;100.00;99960.98;1748916;81;21604;-77
2020/12/24 04:10:04;;;;;;;18.57;10.80;;;;;;;-0.02;100.00;99959.27;1749126;81;21127;-77
2020/12/24 04:12:32;;;;;;;20.03;12.03;;;;;;;-0.05;100.00;99959.19;1729507;81;21214;-77
2020/12/24 04:14:59;;;;;;;17.63;11.23;;;;;;;-0.04;100.00;99956.22;1663594;83;21287;-74
2020/12/24 04:17:27;;;;;;;17.93;10.30;;;;;;;-0.04;100.00;99955.81;1725487;81;21145;-77
2020/12/24 04:19:54;;;;;;;23.27;13.93;;;;;;;-0.07;100.00;99951.05;1730383;81;21153;-77
2020/12/24 04:22:22;;;;;;;17.73;10.73;;;;;;;-0.08;100.00;99950.62;1733578;81;21132;-77
2020/12/24 04:24:50;;;;;;;18.00;9.57;;;;;;;-0.10;100.00;99956.95;1733676;81;21164;-78
2020/12/24 04:27:18;;;;;;;26.30;14.00;;;;;;;-0.08;100.00;99964.60;1733756;81;21180;-77
2020/12/24 04:29:45;;;;;;;18.57;12.00;;;;;;;-0.09;100.00;99948.48;1730247;81;21239;-77
2020/12/24 04:32:13;;;;;;;23.50;12.70;;;;;;;-0.10;100.00;99951.86;1723697;81;21117;-78
2020/12/24 04:34:40;;;;;;;22.47;13.20;;;;;;;-0.09;100.00;99951.03;1743610;81;21172;-78
2020/12/24 04:37:08;;;;;;;15.50;9.20;;;;;;;-0.10;100.00;99944.62;1743903;81;21137;-77
2020/12/24 04:39:36;;;;;;;21.47;12.17;;;;;;;-0.13;100.00;99946.70;1717051;82;21165;-79
2020/12/24 04:42:03;;;;;;;22.13;12.20;;;;;;;-0.10;100.00;99944.23;1744469;81;21161;-79
2020/12/24 04:44:31;;;;;;;18.57;11.87;;;;;;;-0.12;100.00;99942.47;1738068;81;21144;-78
2020/12/24 04:46:58;;;;;;;19.33;10.87;;;;;;;-0.11;100.00;99947.58;1728732;82;21163;-77
2020/12/24 04:49:27;;;;;;;20.23;12.13;;;;;;;-0.14;100.00;99952.58;1760299;80;21123;-77
2020/12/24 04:51:54;;;;;;;17.27;10.47;;;;;;;-0.12;100.00;99947.13;1734311;81;21183;-78
2020/12/24 04:54:22;;;;;;;20.57;10.00;;;;;;;-0.12;100.00;99938.23;1714192;80;21135;-77
2020/12/24 04:56:50;;;;;;;18.73;11.57;;;;;;;-0.15;100.00;99941.97;1742570;80;21142;-76
2020/12/24 04:59:18;;;;;;;19.00;11.80;;;;;;;-0.16;100.00;99939.40;1760521;80;21108;-77
2020/12/24 05:01:51;;;;;;;17.17;10.57;;;;;;;-0.18;100.00;99941.88;1779829;80;21586;-77
2020/12/24 05:04:18;;;;;;;19.80;10.37;;;;;;;-0.15;100.00;99941.97;1758029;80;21143;-78
2020/12/24 05:06:46;;;;;;;16.43;9.73;;;;;;;-0.13;100.00;99936.52;1738775;80;21764;-77
2020/12/24 05:09:14;;;;;;;13.73;7.47;;;;;;;-0.15;100.00;99942.38;1735254;81;21176;-77
2020/12/24 05:11:44;;;;;;;15.23;8.83;;;;;;;-0.15;100.00;99935.61;1657667;85;21124;-77
2020/12/24 05:14:19;;;;;;;17.20;9.10;;;;;;;-0.15;100.00;99944.51;1693339;83;21164;-77
2020/12/24 05:17:07;;;;;;;13.77;8.77;;;;;;;-0.17;100.00;99942.73;1735697;81;21178;-76
2020/12/24 05:22:19;;;;;;;13.47;7.77;;;;;;;-0.09;100.00;99940.00;1819229;77;22138;-76
2020/12/24 05:24:46;;;;;;;13.80;9.30;;;;;;;-0.14;100.00;99938.59;1766308;78;21118;-77
2020/12/24 05:27:20;;;;;;;15.10;9.40;;;;;;;-0.14;100.00;99934.78;1763168;80;21141;-76
2020/12/24 05:29:53;;;;;;;15.47;10.10;;;;;;;-0.12;100.00;99937.38;1762977;80;21327;-76
2020/12/24 05:32:28;;;;;;;13.97;8.17;;;;;;;-0.10;100.00;99939.16;1785430;79;21130;-76
2020/12/24 05:35:07;;;;;;;14.47;9.87;;;;;;;-0.09;100.00;99934.92;1782166;78;21134;-76
2020/12/24 05:37:35;;;;;;;15.57;10.00;;;;;;;-0.09;100.00;99934.92;1787218;79;21503;-76
2020/12/24 05:40:26;;;;;;;16.03;9.00;;;;;;;-0.09;100.00;99942.13;1794181;78;21107;-76
2020/12/24 05:42:57;;;;;;;16.53;10.63;;;;;;;-0.07;100.00;99945.56;1788543;80;21732;-76
2020/12/24 05:45:33;;;;;;;18.00;11.63;;;;;;;-0.06;100.00;99951.53;1778415;79;21269;-76
2020/12/24 05:48:13;;;;;;;19.30;12.00;;;;;;;-0.06;100.00;99953.66;1766777;80;21121;-76
2020/12/24 05:50:42;;;;;;;13.03;8.27;;;;;;;-0.03;100.00;99949.07;1741896;81;21138;-76
2020/12/24 05:53:16;;;;;;;19.57;12.87;;;;;;;-0.01;100.00;99960.12;1772978;80;21122;-76
2020/12/24 05:55:46;;;;;;;22.67;14.03;;;;;;;0.03;100.00;99965.73;1793901;80;21643;-76
2020/12/24 05:58:14;;;;;;;26.60;14.67;;;;;;;0.04;100.00;99959.84;1762812;80;21134;-76
2020/12/24 06:00:42;;;;;;;19.77;11.97;;;;;;;0.06;100.00;99962.42;1762393;80;21283;-76
2020/12/24 06:03:15;;;;;;;20.93;13.43;;;;;;;0.07;100.00;99961.62;1773837;80;21121;-76
2020/12/24 06:05:57;;;;;;;23.53;13.57;;;;;;;0.09;100.00;99958.27;1777489;78;21459;-76
2020/12/24 06:08:31;;;;;;;21.40;13.17;;;;;;;0.12;100.00;99959.62;1762900;80;21136;-76
2020/12/24 06:11:07;;;;;;;22.20;12.87;;;;;;;0.11;100.00;99957.91;1762805;78;21522;-76
2020/12/24 06:13:42;;;;;;;20.13;12.17;;;;;;;0.12;100.00;99943.09;1762732;80;21146;-76
2020/12/24 06:16:12;;;;;;;23.03;14.77;;;;;;;0.11;100.00;99936.29;1762543;80;21154;-76
2020/12/24 06:18:46;;;;;;;23.47;14.63;;;;;;;0.08;100.00;99928.99;1762755;78;21122;-76
2020/12/24 06:21:18;;;;;;;18.73;11.43;;;;;;;0.08;100.00;99927.72;1772948;80;21098;-76
2020/12/24 06:24:00;;;;;;;18.37;11.60;;;;;;;0.04;100.00;99932.29;1773389;79;21074;-76
2020/12/24 06:26:38;;;;;;;19.77;10.67;;;;;;;0.03;100.00;99924.19;1763130;80;21630;-76
2020/12/24 06:29:05;;;;;;;18.40;11.27;;;;;;;0.00;100.00;99921.18;1765485;80;21133;-76
2020/12/24 06:31:33;;;;;;;16.97;11.37;;;;;;;0.04;100.00;99934.41;1772468;80;21149;-76
2020/12/24 06:34:32;;;;;;;20.50;11.53;;;;;;;0.04;100.00;99927.20;1762415;79;21280;-76
2020/12/24 06:37:07;;;;;;;15.00;9.77;;;;;;;0.08;100.00;99926.45;1764942;78;21130;-77
2020/12/24 06:39:42;;;;;;;14.70;9.57;;;;;;;0.10;100.00;99929.48;1791814;80;21110;-79
2020/12/24 06:42:43;;;;;;;12.90;9.23;;;;;;;0.12;100.00;99925.70;1788479;78;21146;-78
2020/12/24 06:45:22;;;;;;;15.03;9.78;;;;;;;0.09;100.00;99923.08;1784064;80;21272;-78
2020/12/24 06:48:30;;;;;;;13.80;8.00;;;;;;;0.09;100.00;99917.98;1761474;80;21602;-78
2020/12/24 06:53:56;;;;;;;16.20;10.37;;;;;;;0.14;100.00;99921.11;1833974;77;22649;-77
2020/12/24 06:56:23;;;;;;;17.83;11.90;;;;;;;0.12;100.00;99919.34;1798632;78;21133;-77
2020/12/24 06:59:03;;;;;;;15.70;10.00;;;;;;;0.13;100.00;99929.95;1799231;78;21580;-77
2020/12/24 07:01:35;;;;;;;13.45;8.20;;;;;;;0.13;100.00;99928.68;1809358;79;21129;-77
2020/12/24 07:04:06;;;;;;;15.00;8.43;;;;;;;0.14;100.00;99921.11;1738318;81;21153;-78
2020/12/24 07:06:49;;;;;;;16.13;10.33;;;;;;;0.14;100.00;99916.44;1739194;81;21138;-78
2020/12/24 07:09:28;;;;;;;17.07;10.43;;;;;;;0.14;100.00;99913.47;1741589;81;21393;-77
2020/12/24 07:11:57;;;;;;;;;;;;;;;0.12;100.00;99910.02;1742060;81;21179;-77
2020/12/24 07:14:38;;;;;;;15.80;9.70;;;;;;;0.11;100.00;99907.03;1737491;81;20143;-77
2020/12/24 07:17:13;;;;;;;14.13;9.30;;;;;;;0.13;100.00;99912.15;1755668;81;21178;-77
2020/12/24 07:19:44;;;;;;;17.17;11.40;;;;;;;0.14;100.00;99915.16;1744869;81;21180;-77
2020/12/24 07:22:16;;;;;;;17.20;10.58;;;;;;;0.18;100.00;99923.31;1725955;82;21405;-77
2020/12/24 07:24:47;;;;;;;15.70;11.13;;;;;;;0.21;100.00;99914.07;1756148;81;21176;-77
2020/12/24 07:27:15;;;;;;;12.70;8.40;;;;;;;0.23;100.00;99907.77;1750967;80;21161;-77
2020/12/24 07:29:45;;;;;;;14.27;9.07;;;;;;;0.25;100.00;99906.52;1750008;81;21130;-77
2020/12/24 07:32:19;;;;;;;13.10;7.67;;;;;;;0.28;100.00;99906.59;1749296;82;21276;-78
2020/12/24 07:34:47;;;;;;;13.37;8.17;;;;;;;0.30;100.00;99911.31;1755648;81;21117;-78
2020/12/24 07:37:16;;;;;;;11.13;7.03;;;;;;;0.27;100.00;99903.61;1743294;81;21713;-76
2020/12/24 07:39:53;;;;;;;15.57;10.33;;;;;;;0.27;100.00;99909.55;1726276;82;21136;-77
2020/12/24 07:42:24;;;;;;;14.73;9.97;;;;;;;0.29;100.00;99908.30;1740901;81;21432;-77
2020/12/24 07:44:52;;;;;;;13.93;8.33;;;;;;;0.29;100.00;99914.25;1756524;81;21177;-75
2020/12/24 07:47:20;;;;;;;13.63;8.27;;;;;;;0.29;100.00;99909.16;1735975;81;21236;-77
2020/12/24 07:49:52;;;;;;;13.07;7.87;;;;;;;0.34;100.00;99912.69;1744550;81;21243;-78
2020/12/24 07:52:19;;;;;;;17.73;10.30;;;;;;;0.38;100.00;99906.84;1739197;81;21113;-77
2020/12/24 07:54:49;;;;;;;15.90;8.73;;;;;;;0.38;100.00;99905.98;1747068;81;21620;-77
2020/12/24 07:57:21;;;;;;;15.70;9.43;;;;;;;0.33;100.00;99899.95;1721006;81;21137;-77
2020/12/24 07:59:49;;;;;;;17.53;9.93;;;;;;;0.30;100.00;99900.73;1752849;80;21142;-78
2020/12/24 08:02:17;;;;;;;18.53;10.83;;;;;;;0.31;100.00;99903.70;1706086;82;21161;-78
2020/12/24 08:04:49;;;;;;;17.03;10.50;;;;;;;0.32;100.00;99906.69;1757568;81;21094;-78
2020/12/24 08:07:17;;;;;;;15.13;10.10;;;;;;;0.37;100.00;99901.31;1727972;82;21150;-76
2020/12/24 08:09:44;;;;;;;15.00;9.20;;;;;;;0.43;100.00;99903.16;1735664;81;21153;-76
2020/12/24 08:12:12;;;;;;;20.10;12.90;;;;;;;0.43;100.00;99906.55;1718422;81;21418;-78
2020/12/24 08:14:40;;;;;;;15.17;9.57;;;;;;;0.46;100.00;99904.09;1696081;82;21167;-76
2020/12/24 08:17:16;;;;;;;18.13;11.50;;;;;;;0.48;100.00;99901.56;1772372;80;21166;-77
2020/12/24 08:20:09;;;;;;;19.00;10.40;;;;;;;0.51;100.00;99904.59;1769435;80;21522;-78
2020/12/24 08:22:57;;;;;;;18.80;10.70;;;;;;;0.52;100.00;99915.21;1772640;80;21165;-81
2020/12/24 08:25:24;;;;;;;17.80;9.83;;;;;;;0.48;100.00;99908.34;1752367;80;21176;-76
2020/12/24 08:27:53;;;;;;;16.17;9.93;;;;;;;0.45;100.00;99907.43;1766226;80;21186;-79
2020/12/24 08:30:21;;;;;;;15.13;8.40;;;;;;;0.39;100.00;99900.95;1761874;80;21181;-79
2020/12/24 08:32:50;;;;;;;16.93;8.90;;;;;;;0.37;100.00;99913.19;1754587;80;21181;-72
2020/12/24 08:35:22;;;;;;;;;;;;;;;0.30;100.00;99911.31;1724134;80;21133;-75
2020/12/24 08:38:12;;;;;;;15.33;8.63;;;;;;;0.26;100.00;99929.85;1774761;80;20148;-78
2020/12/24 08:40:40;;;;;;;14.03;8.20;;;;;;;0.17;100.00;99906.34;1743932;81;21320;-75
2020/12/24 08:43:09;;;;;;;13.23;7.67;;;;;;;0.14;100.00;99913.47;1767990;80;21173;-75
2020/12/24 08:45:48;;;;;;;13.83;7.97;;;;;;;0.13;100.00;99901.97;1755598;80;21165;-74
2020/12/24 08:48:31;;;;;;;11.20;7.70;;;;;;;0.13;100.00;99898.16;1746025;80;21149;-75
2020/12/24 08:50:59;;;;;;;10.47;6.80;;;;;;;0.15;100.00;99893.56;1758637;80;21192;-74
2020/12/24 08:56:18;;;;;;;13.07;8.20;;;;;;;0.21;100.00;99881.41;1809973;77;22829;-74
2020/12/24 08:58:53;;;;;;;11.63;8.17;;;;;;;0.18;100.00;99872.44;1775271;80;21131;-75
2020/12/24 09:01:22;;;;;;;10.90;5.93;;;;;;;0.19;100.00;99870.33;1771218;80;21208;-73
2020/12/24 09:03:50;;;;;;;9.33;5.63;;;;;;;0.19;100.00;99864.83;1767645;80;21138;-72
2020/12/24 09:06:18;;;;;;;11.27;6.87;;;;;;;0.15;100.00;99856.68;1772751;78;21577;-73
2020/12/24 09:08:53;;;;;;;9.77;7.07;;;;;;;0.17;100.00;99854.19;1777554;78;21145;-75
2020/12/24 09:11:31;;;;;;;13.13;5.17;;;;;;;0.20;100.00;99855.54;1758521;80;21354;-74
2020/12/24 09:14:07;;;;;;;9.27;6.63;;;;;;;0.22;100.00;99848.78;1778786;80;21170;-75
2020/12/24 09:16:35;;;;;;;12.63;7.47;;;;;;;0.22;100.00;99842.01;1740215;80;21172;-73
2020/12/24 09:19:06;;;;;;;13.30;7.67;;;;;;;0.27;100.00;99845.09;1700882;82;21158;-74
2020/12/24 09:21:36;;;;;;;9.20;6.27;;;;;;;0.29;100.00;99857.00;1716855;82;21385;-74
2020/12/24 09:24:08;;;;;;;11.80;7.10;;;;;;;0.27;100.00;99854.86;1740900;81;21177;-74
2020/12/24 09:26:44;;;;;;;11.37;7.00;;;;;;;0.27;100.00;99857.81;1711899;82;21231;-75
2020/12/24 09:29:13;;;;;;;11.90;6.27;;;;;;;0.25;100.00;99856.91;1743599;81;21158;-74
2020/12/24 09:31:42;;;;;;;11.00;7.40;;;;;;;0.23;100.00;99860.28;1725781;81;21291;-75
2020/12/24 09:34:10;;;;;;;9.57;7.10;;;;;;;0.22;100.00;99852.59;1700024;83;21126;-75
2020/12/24 09:36:38;;;;;;;6.83;4.97;;;;;;;0.23;100.00;99841.63;1725777;82;21133;-74
2020/12/24 09:39:05;;;;;;;10.03;6.90;;;;;;;0.21;100.00;99832.66;1740839;81;21168;-74
2020/12/24 09:41:35;;;;;;;10.00;6.53;;;;;;;0.20;100.00;99832.23;1747457;82;21102;-75
2020/12/24 09:44:03;;;;;;;8.93;6.20;;;;;;;0.22;100.00;99824.61;1729010;81;21126;-74
2020/12/24 09:46:32;;;;;;;10.17;6.07;;;;;;;0.26;100.00;99819.19;1732981;82;21251;-74
2020/12/24 09:49:00;;;;;;;7.90;5.80;;;;;;;0.36;100.00;99816.91;1739679;82;21130;-74
2020/12/24 09:54:24;;;;;;;8.87;6.73;;;;;;;0.51;100.00;99807.47;1653415;85;21169;-73
2020/12/24 09:56:55;;;;;;;8.37;6.80;;;;;;;0.57;100.00;99810.14;1678359;85;21141;-75
2020/12/24 09:59:28;;;;;;;8.50;6.25;;;;;;;0.61;100.00;99805.98;1643565;84;21161;-75
2020/12/24 10:01:55;;;;;;;10.30;6.47;;;;;;;0.62;100.00;99797.50;1656508;85;21300;-75
2020/12/24 10:04:22;;;;;;;9.93;7.33;;;;;;;0.59;100.00;99796.16;1653508;84;21157;-75
2020/12/24 10:06:50;;;;;;;11.03;7.77;;;;;;;0.57;100.00;99798.69;1662490;84;21607;-76
2020/12/24 10:09:18;;;;;;;11.00;7.87;;;;;;;0.58;100.00;99784.27;1653909;85;21153;-75
2020/12/24 10:11:47;;;;;;;10.73;7.50;;;;;;;0.59;100.00;99788.14;1669697;86;21165;-75
2020/12/24 10:14:15;;;;;;;11.77;8.20;;;;;;;0.64;100.00;99788.23;1663809;85;21123;-75
2020/12/24 10:16:46;;;;;;;14.27;8.87;;;;;;;0.61;100.00;99783.92;1667539;85;21162;-76
2020/12/24 10:19:15;;;;;;;8.88;6.72;;;;;;;0.57;100.00;99774.52;1689292;84;21263;-76
2020/12/24 10:21:42;;;;;;;10.10;7.13;;;;;;;0.56;100.00;99768.13;1690247;83;21110;-75
2020/12/24 10:24:13;;;;;;;10.68;7.78;;;;;;;0.57;100.00;99761.78;1709614;83;21192;-74
2020/12/24 10:26:40;;;;;;;10.30;7.20;;;;;;;0.57;100.00;99763.48;1710034;83;21122;-76
2020/12/24 10:29:08;;;;;;;9.37;6.93;;;;;;;0.59;100.00;99755.44;1717031;84;21154;-75
2020/12/24 10:31:42;;;;;;;11.07;7.57;;;;;;;0.57;100.00;99750.33;1713604;82;21263;-75
2020/12/24 10:36:49;;;;;;;11.20;7.23;;;;;;;0.62;100.00;99738.95;1824363;77;22736;-76
2020/12/24 10:39:17;;;;;;;10.93;7.33;;;;;;;0.55;100.00;99749.42;1778416;78;21178;-76
2020/12/24 10:41:50;;;;;;;10.43;7.03;;;;;;;0.58;100.00;99748.22;1772958;78;21114;-75
2020/12/24 10:44:18;;;;;;;9.33;6.37;;;;;;;0.53;100.00;99751.52;1771663;80;21113;-75
2020/12/24 10:46:46;;;;;;;12.33;7.80;;;;;;;0.54;100.00;99748.99;1778405;80;21086;-76
2020/12/24 10:49:14;;;;;;;10.97;7.40;;;;;;;0.50;100.00;99738.31;1788106;80;21656;-76
2020/12/24 10:51:43;;;;;;;9.93;6.70;;;;;;;0.49;100.00;99744.63;1766578;80;21248;-75
2020/12/24 10:54:11;;;;;;;8.27;6.57;;;;;;;0.46;100.00;99736.53;1739903;80;21296;-76
2020/12/24 10:56:39;;;;;;;10.93;7.67;;;;;;;0.50;100.00;99733.64;1766832;80;21403;-76
2020/12/24 10:59:07;;;;;;;13.43;9.27;;;;;;;0.54;100.00;99723.95;1771782;80;21130;-76
2020/12/24 11:01:34;;;;;;;14.03;8.13;;;;;;;0.58;100.00;99723.19;1774082;80;21142;-77
2020/12/24 11:04:03;;;;;;;15.40;9.87;;;;;;;0.54;100.00;99709.96;1776410;80;21114;-75
2020/12/24 11:06:33;;;;;;;14.37;9.30;;;;;;;0.55;100.00;99707.44;1777558;80;21158;-75
2020/12/24 11:09:00;;;;;;;17.17;11.23;;;;;;;0.55;100.00;99703.61;1765400;80;21562;-76
2020/12/24 11:11:35;;;;;;;17.80;10.75;;;;;;;0.54;100.00;99699.36;1769829;80;21142;-77
2020/12/24 11:14:04;;;;;;;16.90;10.43;;;;;;;0.55;100.00;99702.77;1784541;78;21518;-76
2020/12/24 11:16:35;;;;;;;20.00;9.97;;;;;;;0.54;100.00;99699.78;1782553;80;21074;-76
2020/12/24 11:19:04;;;;;;;16.63;9.90;;;;;;;0.50;100.00;99698.86;1792623;80;21154;-77
2020/12/24 11:21:35;;;;;;;18.77;11.83;;;;;;;0.50;100.00;99693.77;1773913;80;21150;-77
2020/12/24 11:24:05;;;;;;;15.83;10.33;;;;;;;0.50;100.00;99699.28;1764506;78;21122;-76
2020/12/24 11:26:39;;;;;;;16.40;9.93;;;;;;;0.48;100.00;99690.75;1763382;78;21122;-75
2020/12/24 11:29:08;;;;;;;15.60;9.10;;;;;;;0.46;100.00;99686.49;1764676;78;21645;-76
2020/12/24 11:31:37;;;;;;;18.07;11.03;;;;;;;0.46;100.00;99678.01;1773087;80;21233;-75
2020/12/24 11:34:05;;;;;;;15.87;9.47;;;;;;;0.45;100.00;99673.72;1784268;78;21145;-76
2020/12/24 11:36:33;;;;;;;16.33;10.70;;;;;;;0.43;100.00;99677.94;1748723;80;21117;-76
2020/12/24 11:39:01;;;;;;;15.23;10.67;;;;;;;0.47;100.00;99670.80;1774795;79;21539;-75
2020/12/24 11:41:30;;;;;;;16.03;9.10;;;;;;;0.46;100.00;99662.73;1756212;80;21570;-76
2020/12/24 11:43:58;;;;;;;15.87;8.77;;;;;;;0.42;100.00;99664.34;1768898;80;21300;-76